Overview Statistics Trail Chart Weather Telemetry Raw packets
 

This is the latest recevied weather packets stored in our database for station/object WAKT. If no packets are shown the sender has not sent any weather packets the latest 10 day(s).

<< 11 12 13 14 15 >>
Time Temp. Humidity Pressure Rain* Wind** Luminosity Snow
1787583546 23.89° C 83% 1015 hPa 0 mm - - -
1787581526 23.89° C 83% 1015 hPa 0 mm - - -
1787579535 25° C 74% 1014 hPa 0 mm - - -
1787577467 27.22° C 66% 1013 hPa 0 mm - - -
1787573377 27.22° C 66% 1013 hPa 0 mm - - -
1787571362 27.22° C 66% 1013 hPa 0 mm - - -
1787569374 27.22° C 66% 1013 hPa 0 mm - - -
1787567369 27.78° C 62% 1013 hPa 0 mm - - -
1787565396 27.78° C 62% 1013 hPa 0 mm - - -
1787563416 31.11° C 55% 1012 hPa 0 mm - - -
1787561369 32.22° C 52% 1012 hPa 0 mm - - -
1787555401 31.11° C 55% 1012 hPa 0 mm - - -
1787553354 32.22° C 56% 1012 hPa 0 mm - - -
1787551233 32.22° C 56% 1012 hPa 0 mm - - -
1787549256 31.11° C 55% 1013 hPa 0 mm - - -
1787547388 31.11° C 59% 1014 hPa 0 mm - - -
1787545303 31.11° C 59% 1014 hPa 0 mm - - -
1787543329 30° C 62% 1015 hPa 0 mm - - -
1787541354 30° C 62% 1015 hPa 0 mm - - -
1787539373 28.89° C 70% 1016 hPa 0 mm - - -
1787537396 28.89° C 70% 1016 hPa 0 mm - - -
1787535422 26.11° C 79% 1016 hPa 0 mm - - -
1787533436 26.11° C 79% 1016 hPa 0 mm - - -
1787531461 25° C 83% 1016 hPa 0 mm - - -
1787529483 25° C 83% 1016 hPa 0 mm - - -

* Rain latest hour (hover to see other rain measurements)
** Current wind speed in m/s (hover to see current wind gust speed)